Time;durP1;ratioP1;P1;durP2;ratioP2;P2;SDS_P1;SDS_P2;PMS_P1;PMS_P2;Temp;Humidity;BMP_temperature;BMP_pressure;BME280_temperature;BME280_humidity;BME280_pressure;Samples;Min_cycle;Max_cycle;Signal;HPM_P1;HPM_P2
2023/06/23 00:01:13;;;;;;;18.60;10.93;;;18.40;99.90;;;;;;5030147;28;20048;-73
2023/06/23 00:03:40;;;;;;;19.10;9.75;;;18.30;99.90;;;;;;5024592;28;20037;-73
2023/06/23 00:06:06;;;;;;;18.58;10.48;;;18.30;99.90;;;;;;5035234;28;20049;-73
2023/06/23 00:08:33;;;;;;;15.35;9.07;;;18.30;99.90;;;;;;5025648;28;20411;-73
2023/06/23 00:10:58;;;;;;;16.20;10.02;;;18.30;99.90;;;;;;5027727;28;20407;-73
2023/06/23 00:13:24;;;;;;;18.98;9.93;;;18.30;99.90;;;;;;5035080;28;20041;-74
2023/06/23 00:15:53;;;;;;;19.50;11.32;;;18.30;99.90;;;;;;5013591;28;20064;-73
2023/06/23 00:18:20;;;;;;;19.27;11.52;;;18.30;99.90;;;;;;5024271;28;20120;-73
2023/06/23 00:20:46;;;;;;;16.70;10.50;;;18.30;99.90;;;;;;5025261;28;20041;-74
2023/06/23 00:23:12;;;;;;;14.93;11.02;;;18.20;99.90;;;;;;5026224;28;20048;-73
2023/06/23 00:25:38;;;;;;;18.50;11.27;;;18.20;99.90;;;;;;5026948;28;20049;-73
2023/06/23 00:28:04;;;;;;;17.48;11.27;;;18.20;99.90;;;;;;5026396;28;20454;-73
2023/06/23 00:30:29;;;;;;;18.17;12.15;;;18.20;99.90;;;;;;5034214;28;20049;-75
2023/06/23 00:32:55;;;;;;;22.17;12.02;;;18.20;99.90;;;;;;5045447;28;20764;-73
2023/06/23 00:35:21;;;;;;;20.00;12.43;;;18.20;99.90;;;;;;5044846;28;20045;-73
2023/06/23 00:37:47;;;;;;;20.63;12.88;;;18.20;99.90;;;;;;5041336;28;20587;-73
2023/06/23 00:40:15;;;;;;;21.40;12.38;;;18.10;99.90;;;;;;5000774;28;20072;-72
2023/06/23 00:42:55;;;;;;;22.20;13.68;;;18.10;99.90;;;;;;5020714;28;20044;-73
2023/06/23 00:45:21;;;;;;;20.23;13.15;;;18.10;99.90;;;;;;5039698;28;20049;-73
2023/06/23 00:47:47;;;;;;;21.95;11.95;;;18.00;99.90;;;;;;5026183;28;20492;-73
2023/06/23 00:50:18;;;;;;;22.17;12.45;;;18.10;99.90;;;;;;5026396;28;20062;-74
2023/06/23 00:52:49;;;;;;;20.77;12.15;;;18.00;99.90;;;;;;5024736;28;20049;-73
2023/06/23 00:55:20;;;;;;;20.77;12.25;;;18.00;99.90;;;;;;5024695;28;20515;-73
2023/06/23 00:57:46;;;;;;;18.85;12.00;;;18.00;99.90;;;;;;5026101;28;20043;-73
2023/06/23 01:00:16;;;;;;;21.85;11.88;;;18.00;99.90;;;;;;5024515;28;20563;-73
2023/06/23 01:02:42;;;;;;;20.30;12.02;;;18.00;99.90;;;;;;5098959;22;20080;-73
2023/06/23 01:05:09;;;;;;;19.17;10.95;;;18.00;99.90;;;;;;5045713;28;20458;-74
2023/06/23 01:07:49;;;;;;;21.08;12.05;;;17.90;99.90;;;;;;5035967;28;20088;-73
2023/06/23 01:10:24;;;;;;;20.52;10.65;;;17.90;99.90;;;;;;5045720;28;20037;-73
2023/06/23 01:13:21;;;;;;;16.05;10.95;;;17.90;99.90;;;;;;5035917;28;20060;-73
2023/06/23 01:15:56;;;;;;;20.58;11.45;;;17.90;99.90;;;;;;5033802;28;20037;-73
2023/06/23 01:18:31;;;;;;;19.85;10.98;;;17.80;99.90;;;;;;5042514;28;20056;-73
2023/06/23 01:21:01;;;;;;;17.15;10.55;;;17.80;99.90;;;;;;5044538;28;20045;-73
2023/06/23 01:24:03;;;;;;;20.58;11.02;;;17.80;99.90;;;;;;5044773;28;20045;-73
2023/06/23 01:26:50;;;;;;;23.13;12.15;;;17.80;99.90;;;;;;5044983;28;20097;-73
2023/06/23 01:29:30;;;;;;;19.38;12.20;;;17.80;99.90;;;;;;5044152;28;20099;-73
2023/06/23 01:32:00;;;;;;;18.35;11.57;;;17.80;99.90;;;;;;5044551;28;20084;-73
2023/06/23 01:34:38;;;;;;;22.85;12.63;;;17.80;99.90;;;;;;5043584;28;20069;-73
2023/06/23 01:37:10;;;;;;;22.40;12.63;;;17.70;99.90;;;;;;5045637;28;20084;-73
2023/06/23 01:39:38;;;;;;;21.50;12.35;;;17.70;99.90;;;;;;5045192;28;20041;-73
2023/06/23 01:42:08;;;;;;;20.73;12.10;;;17.70;99.90;;;;;;5027617;28;20049;-73
2023/06/23 01:44:37;;;;;;;23.55;12.57;;;17.70;99.90;;;;;;5027751;28;20057;-73
2023/06/23 01:47:10;;;;;;;23.98;12.98;;;17.70;99.90;;;;;;5027786;28;20495;-73
2023/06/23 01:49:37;;;;;;;26.65;14.02;;;17.70;99.90;;;;;;5024175;28;20071;-73
2023/06/23 01:52:06;;;;;;;25.95;14.90;;;17.70;99.90;;;;;;5041362;28;20491;-74
2023/06/23 01:54:33;;;;;;;29.38;15.40;;;17.70;99.90;;;;;;5043646;28;20051;-73
2023/06/23 01:57:00;;;;;;;25.70;16.15;;;17.70;99.90;;;;;;5044033;28;20094;-73
2023/06/23 01:59:28;;;;;;;27.35;15.98;;;17.60;99.90;;;;;;5036817;28;20495;-73
2023/06/23 02:01:54;;;;;;;26.60;16.08;;;17.60;99.90;;;;;;5026395;28;20048;-73
2023/06/23 02:04:21;;;;;;;24.88;15.18;;;17.60;99.90;;;;;;5024906;28;20134;-73
2023/06/23 02:06:50;;;;;;;24.70;14.57;;;17.60;99.90;;;;;;5024009;28;20253;-73
2023/06/23 02:09:22;;;;;;;24.95;15.98;;;17.60;99.90;;;;;;5006887;28;20079;-73
2023/06/23 02:11:48;;;;;;;27.63;15.88;;;17.50;99.90;;;;;;5044458;28;20124;-73
2023/06/23 02:14:15;;;;;;;25.92;15.38;;;17.50;99.90;;;;;;5027762;28;20311;-73
2023/06/23 02:16:43;;;;;;;29.33;15.50;;;17.50;99.90;;;;;;5025436;28;20087;-73
2023/06/23 02:19:09;;;;;;;25.85;14.70;;;17.50;99.90;;;;;;5039374;28;20411;-73
2023/06/23 02:21:36;;;;;;;25.50;13.98;;;17.50;99.90;;;;;;5026602;28;20057;-73
2023/06/23 02:24:05;;;;;;;27.52;13.27;;;17.50;99.90;;;;;;5042807;28;20083;-74
2023/06/23 02:26:35;;;;;;;25.38;14.23;;;17.50;99.90;;;;;;5044760;28;20106;-73
2023/06/23 02:29:03;;;;;;;25.13;14.10;;;17.50;99.90;;;;;;5043109;28;20051;-73
2023/06/23 02:31:28;;;;;;;24.90;12.88;;;17.50;99.90;;;;;;5045604;28;20045;-73
2023/06/23 02:33:54;;;;;;;26.80;12.73;;;17.50;99.90;;;;;;5023009;28;20045;-73
2023/06/23 02:36:24;;;;;;;23.05;12.80;;;17.50;99.90;;;;;;5024918;28;20084;-73
2023/06/23 02:38:56;;;;;;;28.25;13.50;;;17.50;99.90;;;;;;5043594;28;20132;-72
2023/06/23 02:41:25;;;;;;;20.45;13.05;;;17.40;99.90;;;;;;5042447;28;20049;-74
2023/06/23 02:43:56;;;;;;;22.30;13.85;;;17.40;99.90;;;;;;5008389;28;20034;-73
2023/06/23 02:46:27;;;;;;;22.55;12.27;;;17.40;99.90;;;;;;5023300;28;20549;-73
2023/06/23 02:49:02;;;;;;;21.17;13.02;;;17.40;99.90;;;;;;5022092;28;20042;-74
2023/06/23 02:51:29;;;;;;;22.38;12.52;;;17.40;99.90;;;;;;5023674;28;20048;-73
2023/06/23 02:54:00;;;;;;;20.10;11.07;;;17.40;99.90;;;;;;5033985;28;20045;-73
2023/06/23 02:56:28;;;;;;;23.15;11.15;;;17.40;99.90;;;;;;5042286;28;20029;-73
2023/06/23 02:59:06;;;;;;;21.15;11.45;;;17.40;99.90;;;;;;5023221;28;20049;-73
2023/06/23 03:01:39;;;;;;;24.73;12.18;;;17.40;99.90;;;;;;5035826;28;20685;-73
2023/06/23 03:04:04;;;;;;;21.02;10.32;;;17.30;99.90;;;;;;5032495;28;20049;-73
2023/06/23 03:06:34;;;;;;;18.85;10.80;;;17.30;99.90;;;;;;5043774;28;20487;-73
2023/06/23 03:09:00;;;;;;;21.08;10.63;;;17.30;99.90;;;;;;5040148;28;20045;-75
2023/06/23 03:11:25;;;;;;;19.52;10.70;;;17.30;99.90;;;;;;5024734;28;20682;-73
2023/06/23 03:13:51;;;;;;;18.30;10.23;;;17.30;99.90;;;;;;5028646;28;20037;-74
2023/06/23 03:16:36;;;;;;;19.45;9.80;;;17.30;99.90;;;;;;5027127;28;20065;-73
2023/06/23 03:19:23;;;;;;;19.65;9.32;;;17.30;99.90;;;;;;5031361;28;20041;-73
2023/06/23 03:22:15;;;;;;;17.40;9.23;;;17.30;99.90;;;;;;5044460;28;20619;-73
2023/06/23 03:24:44;;;;;;;19.20;10.07;;;17.30;99.90;;;;;;5031580;28;20041;-73
2023/06/23 03:27:13;;;;;;;14.00;7.65;;;17.30;99.90;;;;;;5044545;28;20045;-73
2023/06/23 03:29:44;;;;;;;13.40;8.07;;;17.30;99.90;;;;;;5046360;28;20048;-73
2023/06/23 03:32:14;;;;;;;19.13;7.97;;;17.30;99.90;;;;;;5046787;28;20541;-73
2023/06/23 03:34:45;;;;;;;17.08;8.63;;;17.20;99.90;;;;;;5047589;28;20048;-73
2023/06/23 03:37:14;;;;;;;13.05;7.63;;;17.20;99.90;;;;;;5032132;28;20080;-73
2023/06/23 03:39:43;;;;;;;14.98;7.80;;;17.20;99.90;;;;;;5037426;28;20544;-73
2023/06/23 03:42:10;;;;;;;14.52;8.43;;;17.20;99.90;;;;;;5029483;28;20049;-73
2023/06/23 03:44:46;;;;;;;17.10;8.13;;;17.20;99.90;;;;;;5029301;28;20846;-72
2023/06/23 03:47:25;;;;;;;16.38;7.90;;;17.20;99.90;;;;;;5035580;28;20045;-73
2023/06/23 03:49:58;;;;;;;15.35;7.20;;;17.20;99.90;;;;;;5027830;28;20045;-73
2023/06/23 03:52:27;;;;;;;16.25;7.80;;;17.20;99.90;;;;;;5033295;28;20052;-74
2023/06/23 03:54:54;;;;;;;14.52;7.55;;;17.20;99.90;;;;;;5030731;28;20041;-73
2023/06/23 03:57:24;;;;;;;13.68;8.13;;;17.20;99.90;;;;;;5043332;28;20048;-73
2023/06/23 03:59:51;;;;;;;13.25;7.20;;;17.20;99.90;;;;;;5014788;28;20095;-73
2023/06/23 04:02:20;;;;;;;12.32;7.18;;;17.20;99.90;;;;;;5026538;28;20094;-73
2023/06/23 04:04:48;;;;;;;12.13;7.47;;;17.10;99.90;;;;;;5047189;28;20053;-73
2023/06/23 04:07:14;;;;;;;12.75;7.95;;;17.20;99.90;;;;;;5041690;28;20071;-74
2023/06/23 04:09:43;;;;;;;14.00;7.57;;;17.10;99.90;;;;;;5026404;28;20072;-73
2023/06/23 04:12:13;;;;;;;17.80;8.25;;;17.20;99.90;;;;;;5025753;28;20037;-73
2023/06/23 04:14:41;;;;;;;15.05;8.05;;;17.20;99.90;;;;;;5027078;28;20502;-73
2023/06/23 04:17:11;;;;;;;16.52;8.10;;;17.20;99.90;;;;;;5027288;28;20120;-73
2023/06/23 04:19:40;;;;;;;13.48;7.53;;;17.20;99.90;;;;;;5035946;28;20033;-74
2023/06/23 04:22:07;;;;;;;13.05;8.13;;;17.30;99.90;;;;;;5033445;28;20041;-73
2023/06/23 04:24:35;;;;;;;15.18;8.48;;;17.30;99.90;;;;;;5046821;28;20274;-73
2023/06/23 04:27:03;;;;;;;16.60;7.45;;;17.30;99.90;;;;;;5030022;28;20041;-73
2023/06/23 04:29:30;;;;;;;12.73;7.47;;;17.30;99.90;;;;;;5030401;28;20046;-73
2023/06/23 04:31:58;;;;;;;11.60;6.75;;;17.30;99.90;;;;;;5026548;28;20054;-74
2023/06/23 04:34:23;;;;;;;10.15;6.82;;;17.30;99.90;;;;;;5025217;28;20091;-73
2023/06/23 04:36:58;;;;;;;19.13;7.85;;;17.30;99.90;;;;;;5024435;28;20294;-73
2023/06/23 04:39:29;;;;;;;12.80;7.45;;;17.30;99.90;;;;;;5028178;28;20526;-73
2023/06/23 04:41:57;;;;;;;15.57;7.63;;;17.30;99.90;;;;;;5045469;28;20045;-74
2023/06/23 04:44:28;;;;;;;13.38;7.57;;;17.30;99.90;;;;;;5044961;28;20487;-73
2023/06/23 04:46:59;;;;;;;13.30;7.57;;;17.30;99.90;;;;;;5045757;28;20052;-73
2023/06/23 04:49:28;;;;;;;11.85;6.65;;;17.40;99.90;;;;;;5046636;28;20033;-73
2023/06/23 04:51:56;;;;;;;14.30;7.18;;;17.30;99.90;;;;;;5031764;28;20064;-74
2023/06/23 04:54:26;;;;;;;13.52;7.15;;;17.30;99.90;;;;;;5037090;28;20521;-73
2023/06/23 04:57:01;;;;;;;13.65;6.60;;;17.30;99.90;;;;;;5038222;28;20057;-74
2023/06/23 04:59:32;;;;;;;15.00;6.88;;;17.30;99.90;;;;;;5047168;28;20709;-74
2023/06/23 05:01:59;;;;;;;12.40;6.80;;;17.30;99.90;;;;;;5057529;28;20045;-73
2023/06/23 05:04:26;;;;;;;14.27;7.65;;;17.30;99.90;;;;;;5031999;28;20525;-73
2023/06/23 05:06:53;;;;;;;12.68;5.95;;;17.40;99.90;;;;;;5034689;28;20049;-73
2023/06/23 05:09:21;;;;;;;14.35;6.35;;;17.40;99.90;;;;;;5035748;28;20041;-73
2023/06/23 05:11:48;;;;;;;11.80;6.55;;;17.50;99.90;;;;;;5016109;28;20123;-73
2023/06/23 05:14:16;;;;;;;11.05;6.10;;;17.50;99.90;;;;;;5044722;28;20432;-73
2023/06/23 05:16:43;;;;;;;12.57;7.18;;;17.50;99.90;;;;;;5045133;28;20060;-73
2023/06/23 05:19:10;;;;;;;11.15;6.35;;;17.60;99.90;;;;;;5043263;28;20136;-74
2023/06/23 05:21:37;;;;;;;15.15;8.20;;;17.60;99.90;;;;;;5034094;28;20096;-73
2023/06/23 05:24:06;;;;;;;12.40;6.93;;;17.70;99.90;;;;;;5025810;28;20046;-73
2023/06/23 05:26:34;;;;;;;15.43;6.40;;;17.70;99.90;;;;;;5026388;28;20041;-72
2023/06/23 05:29:06;;;;;;;11.75;6.13;;;17.80;99.90;;;;;;5036538;28;20059;-73
2023/06/23 05:31:36;;;;;;;12.77;7.07;;;17.80;99.90;;;;;;5029099;28;20073;-73
2023/06/23 05:34:04;;;;;;;12.88;7.32;;;17.80;99.90;;;;;;5025995;28;20114;-72
2023/06/23 05:36:32;;;;;;;12.93;7.55;;;17.90;99.90;;;;;;5025837;28;20517;-73
2023/06/23 05:38:59;;;;;;;11.35;6.65;;;17.90;99.90;;;;;;5026419;28;20088;-72
2023/06/23 05:41:25;;;;;;;15.45;8.52;;;17.90;99.90;;;;;;5026088;28;20052;-72
2023/06/23 05:43:51;;;;;;;11.70;6.60;;;18.00;99.90;;;;;;5031033;28;20480;-70
2023/06/23 05:46:23;;;;;;;14.38;7.75;;;18.00;99.90;;;;;;5035161;28;20037;-73
2023/06/23 05:48:52;;;;;;;15.68;7.93;;;18.10;99.90;;;;;;5029500;28;20114;-72
2023/06/23 05:51:25;;;;;;;12.70;7.10;;;18.10;99.90;;;;;;5030784;28;20050;-72
2023/06/23 05:53:58;;;;;;;15.45;7.72;;;18.10;99.90;;;;;;5028797;28;20566;-72
2023/06/23 05:56:30;;;;;;;12.73;6.72;;;18.10;99.90;;;;;;5026198;28;20049;-73
2023/06/23 05:58:57;;;;;;;;;;;18.10;99.90;;;;;;5032669;28;20487;-73
2023/06/23 06:01:24;;;;;;;8.73;6.57;;;18.20;99.90;;;;;;5034127;28;19921;-73
2023/06/23 06:04:16;;;;;;;11.23;6.22;;;18.20;99.90;;;;;;5035049;28;20091;-73
2023/06/23 06:06:44;;;;;;;9.43;5.57;;;18.20;99.90;;;;;;5023610;28;20053;-74
2023/06/23 06:09:11;;;;;;;11.30;6.47;;;18.20;99.90;;;;;;5029190;28;20051;-73
2023/06/23 06:11:42;;;;;;;8.10;5.43;;;18.20;99.90;;;;;;5032366;28;20416;-73
2023/06/23 06:14:09;;;;;;;8.57;5.22;;;18.20;99.90;;;;;;5030290;28;20120;-73
2023/06/23 06:16:36;;;;;;;11.77;5.88;;;18.20;99.90;;;;;;5024172;28;20056;-74
2023/06/23 06:19:03;;;;;;;7.88;5.50;;;18.20;99.90;;;;;;5029516;28;20529;-72
2023/06/23 06:21:32;;;;;;;8.98;4.40;;;18.30;99.90;;;;;;5032560;28;20128;-72
2023/06/23 06:23:59;;;;;;;10.85;5.38;;;18.30;99.90;;;;;;5036159;28;21731;-72
2023/06/23 06:26:25;;;;;;;6.60;4.28;;;18.30;99.90;;;;;;5030086;28;20128;-72
2023/06/23 06:28:54;;;;;;;12.30;5.05;;;18.30;99.90;;;;;;5027459;28;20045;-72
2023/06/23 06:31:20;;;;;;;10.85;5.95;;;18.40;99.90;;;;;;5032642;28;20582;-72
2023/06/23 06:33:50;;;;;;;9.68;4.97;;;18.50;99.90;;;;;;5022916;28;20049;-72
2023/06/23 06:36:18;;;;;;;9.73;4.88;;;18.40;99.90;;;;;;5030229;28;20045;-72
2023/06/23 06:38:47;;;;;;;7.00;4.60;;;18.50;99.90;;;;;;5037584;28;20037;-72
2023/06/23 06:41:15;;;;;;;7.65;4.35;;;18.50;99.90;;;;;;5038217;28;20045;-72
2023/06/23 06:43:40;;;;;;;8.38;5.00;;;18.50;99.90;;;;;;5037276;28;20443;-72
2023/06/23 06:46:07;;;;;;;11.57;4.80;;;18.50;99.90;;;;;;5039855;28;20045;-72
2023/06/23 06:48:34;;;;;;;10.07;5.35;;;18.50;99.90;;;;;;5036160;28;20483;-73
2023/06/23 06:51:00;;;;;;;11.60;5.18;;;18.60;99.90;;;;;;5043356;28;20244;-73
2023/06/23 06:53:26;;;;;;;6.88;4.32;;;18.60;99.90;;;;;;5044665;28;20052;-72
2023/06/23 06:55:53;;;;;;;6.85;4.05;;;18.60;99.90;;;;;;5030101;28;20407;-72
2023/06/23 06:58:19;;;;;;;9.93;4.20;;;18.70;99.90;;;;;;5038103;28;20055;-72
2023/06/23 07:00:45;;;;;;;9.38;4.30;;;18.70;99.90;;;;;;5014487;28;20049;-72
2023/06/23 07:03:15;;;;;;;5.90;3.67;;;18.70;99.90;;;;;;5042446;28;20045;-72
2023/06/23 07:05:41;;;;;;;9.07;4.05;;;18.70;99.90;;;;;;5038311;28;20060;-72
2023/06/23 07:08:07;;;;;;;6.05;3.95;;;18.80;99.90;;;;;;5028665;28;20041;-72
2023/06/23 07:10:34;;;;;;;8.13;4.00;;;18.90;99.90;;;;;;5040452;28;20055;-73
2023/06/23 07:13:00;;;;;;;7.47;3.30;;;18.90;99.90;;;;;;5030063;28;20041;-73
2023/06/23 07:15:26;;;;;;;5.88;3.83;;;18.90;99.90;;;;;;5032385;28;20041;-73
2023/06/23 07:17:52;;;;;;;6.38;4.00;;;18.90;99.90;;;;;;5036448;28;20087;-71
2023/06/23 07:20:17;;;;;;;7.35;3.33;;;19.00;99.90;;;;;;5041077;28;20084;-72
2023/06/23 07:22:44;;;;;;;5.22;3.17;;;19.00;99.90;;;;;;5040779;28;20398;-71
2023/06/23 07:25:09;;;;;;;6.78;3.60;;;19.00;99.90;;;;;;5041990;28;20045;-72
2023/06/23 07:27:36;;;;;;;6.72;3.55;;;19.10;99.90;;;;;;5040661;28;20553;-71
2023/06/23 07:30:02;;;;;;;6.35;3.53;;;19.10;99.90;;;;;;5022775;28;20063;-72
2023/06/23 07:32:28;;;;;;;4.40;2.60;;;19.20;99.90;;;;;;5042300;28;20044;-71
2023/06/23 07:34:53;;;;;;;5.80;3.22;;;19.20;99.90;;;;;;5041618;28;20045;-71
2023/06/23 07:37:19;;;;;;;4.32;3.45;;;19.20;99.90;;;;;;5027764;28;20757;-71
2023/06/23 07:39:45;;;;;;;4.15;2.38;;;19.20;99.90;;;;;;5033767;28;20048;-71
2023/06/23 07:42:10;;;;;;;4.00;2.97;;;19.30;99.90;;;;;;5056749;28;20052;-71
2023/06/23 07:44:37;;;;;;;4.78;2.72;;;19.30;99.90;;;;;;5012879;28;20481;-71
2023/06/23 07:47:03;;;;;;;8.07;3.47;;;19.30;99.90;;;;;;5019863;28;20056;-71
2023/06/23 07:49:29;;;;;;;6.63;2.53;;;19.40;99.90;;;;;;5021595;28;20053;-71
2023/06/23 07:52:00;;;;;;;5.00;3.25;;;19.40;99.90;;;;;;5028067;28;20053;-70
2023/06/23 07:54:29;;;;;;;5.88;3.40;;;19.50;99.90;;;;;;5039608;28;20544;-71
2023/06/23 07:56:56;;;;;;;5.68;3.22;;;19.50;99.90;;;;;;5035656;28;20049;-71
2023/06/23 07:59:22;;;;;;;6.30;2.78;;;19.50;99.90;;;;;;5022926;28;20050;-71
2023/06/23 08:01:48;;;;;;;4.90;2.65;;;19.50;99.90;;;;;;5031521;28;20125;-71
2023/06/23 08:04:13;;;;;;;4.25;2.80;;;19.50;99.90;;;;;;5042104;28;20059;-71
2023/06/23 08:06:39;;;;;;;3.55;2.70;;;19.50;99.90;;;;;;5042862;28;20048;-71
2023/06/23 08:09:04;;;;;;;4.35;2.38;;;19.60;99.90;;;;;;5036564;28;20048;-72
2023/06/23 08:11:30;;;;;;;4.32;2.78;;;19.60;99.90;;;;;;5023042;28;20427;-72
2023/06/23 08:13:56;;;;;;;5.38;2.92;;;19.70;99.90;;;;;;5030126;28;20052;-71
2023/06/23 08:16:22;;;;;;;3.97;2.65;;;19.60;99.90;;;;;;5044080;28;20056;-72
2023/06/23 08:18:47;;;;;;;4.00;3.10;;;19.70;99.90;;;;;;5027425;28;20049;-71
2023/06/23 08:21:13;;;;;;;3.88;2.55;;;19.70;99.90;;;;;;5024076;28;20037;-72
2023/06/23 08:23:40;;;;;;;5.97;2.83;;;19.80;99.90;;;;;;5026509;28;20037;-72
2023/06/23 08:26:05;;;;;;;4.60;2.88;;;19.80;99.90;;;;;;5035641;28;20056;-72
2023/06/23 08:28:31;;;;;;;5.65;3.15;;;19.80;99.90;;;;;;5044475;28;20052;-72
2023/06/23 08:30:57;;;;;;;3.75;2.63;;;19.70;99.90;;;;;;5030283;28;20506;-71
2023/06/23 08:33:23;;;;;;;6.10;2.75;;;19.70;99.90;;;;;;5034188;28;20124;-71
2023/06/23 08:35:49;;;;;;;3.50;2.45;;;19.80;99.90;;;;;;5045875;28;20036;-71
2023/06/23 08:38:16;;;;;;;7.55;3.50;;;19.90;99.90;;;;;;5017097;28;20131;-71
2023/06/23 08:40:41;;;;;;;4.20;3.03;;;19.90;99.90;;;;;;5026698;28;20053;-71
2023/06/23 08:43:12;;;;;;;3.58;2.78;;;19.90;99.90;;;;;;5025814;28;20050;-72
2023/06/23 08:45:44;;;;;;;6.00;3.05;;;20.00;99.90;;;;;;5021028;28;20159;-72
2023/06/23 08:48:11;;;;;;;3.72;2.42;;;20.00;99.90;;;;;;5044852;28;20041;-72
2023/06/23 08:50:37;;;;;;;6.40;2.95;;;20.00;99.90;;;;;;5038594;28;20047;-72
2023/06/23 08:53:04;;;;;;;5.13;3.40;;;20.10;99.90;;;;;;5007751;28;20060;-72
2023/06/23 08:55:32;;;;;;;5.65;3.08;;;20.10;99.90;;;;;;5046058;28;20037;-72
2023/06/23 08:58:00;;;;;;;4.65;2.92;;;20.20;99.90;;;;;;5030695;28;20045;-73
2023/06/23 09:00:27;;;;;;;7.22;3.53;;;20.20;99.90;;;;;;5026099;28;20041;-73
2023/06/23 09:02:52;;;;;;;5.88;4.13;;;20.20;99.90;;;;;;5041118;28;20453;-73
2023/06/23 09:05:18;;;;;;;4.85;3.25;;;20.20;99.90;;;;;;5044877;28;20049;-73
2023/06/23 09:07:44;;;;;;;5.40;3.17;;;20.20;99.90;;;;;;5043777;28;20391;-73
2023/06/23 09:10:11;;;;;;;6.93;3.47;;;20.20;99.90;;;;;;5044005;28;20033;-73
2023/06/23 09:12:57;;;;;;;4.50;3.30;;;20.30;99.90;;;;;;5041238;28;20055;-72
2023/06/23 09:15:23;;;;;;;4.57;3.55;;;20.30;99.90;;;;;;5027257;28;20059;-73
2023/06/23 09:17:48;;;;;;;6.68;3.20;;;20.30;99.90;;;;;;5042954;28;20046;-72
2023/06/23 09:20:15;;;;;;;5.13;3.58;;;20.40;99.90;;;;;;5025729;28;20424;-72
2023/06/23 09:22:41;;;;;;;5.60;3.17;;;20.40;99.90;;;;;;5024813;28;20045;-71
2023/06/23 09:25:07;;;;;;;5.45;2.95;;;20.50;99.90;;;;;;5024997;28;20120;-72
2023/06/23 09:27:40;;;;;;;5.93;3.15;;;20.50;99.90;;;;;;5025304;28;20096;-72
2023/06/23 09:30:07;;;;;;;4.85;2.97;;;20.50;99.90;;;;;;5040428;28;20128;-72
2023/06/23 09:32:33;;;;;;;3.67;2.85;;;20.50;99.90;;;;;;5036726;28;20095;-72
2023/06/23 09:34:59;;;;;;;5.95;2.97;;;20.50;99.90;;;;;;5045903;28;20045;-72
2023/06/23 09:37:33;;;;;;;4.78;3.28;;;20.60;99.90;;;;;;5044882;28;20372;-71
2023/06/23 09:39:59;;;;;;;4.07;3.00;;;20.60;99.90;;;;;;5044023;28;20519;-72
2023/06/23 09:42:24;;;;;;;5.93;3.15;;;20.60;99.90;;;;;;5029955;28;20046;-72
2023/06/23 09:44:50;;;;;;;4.63;3.15;;;20.50;99.90;;;;;;5023528;28;20519;-72
2023/06/23 09:47:18;;;;;;;3.38;2.72;;;20.60;99.90;;;;;;5023584;28;20049;-72
2023/06/23 09:49:46;;;;;;;3.75;2.50;;;20.60;99.90;;;;;;5023830;28;20396;-71
2023/06/23 09:52:14;;;;;;;3.83;2.90;;;20.60;99.90;;;;;;5025592;28;20060;-71
2023/06/23 09:54:41;;;;;;;3.58;2.50;;;20.60;99.90;;;;;;5025191;28;20038;-72
2023/06/23 09:57:14;;;;;;;5.00;3.40;;;20.60;99.90;;;;;;5024424;28;20049;-72
2023/06/23 09:59:41;;;;;;;7.35;3.15;;;20.60;99.90;;;;;;5023137;28;20535;-79
2023/06/23 10:02:08;;;;;;;4.90;3.13;;;20.70;99.90;;;;;;5024409;28;20037;-81
2023/06/23 10:04:35;;;;;;;2.83;2.20;;;20.70;99.90;;;;;;5037282;28;20060;-72
2023/06/23 10:07:21;;;;;;;5.35;3.03;;;20.70;99.90;;;;;;5040486;28;20053;-72
2023/06/23 10:09:52;;;;;;;4.15;2.65;;;20.70;99.90;;;;;;5044190;28;20049;-72
2023/06/23 10:12:22;;;;;;;4.65;3.40;;;20.70;99.90;;;;;;5027306;28;20140;-72
2023/06/23 10:14:49;;;;;;;4.03;2.72;;;20.70;99.90;;;;;;5024393;28;20055;-72
2023/06/23 10:17:16;;;;;;;3.60;3.00;;;20.70;99.90;;;;;;5023339;28;20064;-72
2023/06/23 10:19:44;;;;;;;3.72;2.75;;;20.70;99.90;;;;;;5022999;28;20091;-72
2023/06/23 10:22:11;;;;;;;7.15;3.05;;;20.80;99.90;;;;;;5023498;28;20056;-72
2023/06/23 10:24:37;;;;;;;4.18;2.38;;;20.70;99.90;;;;;;5026152;28;20041;-73
2023/06/23 10:27:05;;;;;;;3.40;2.17;;;20.80;99.90;;;;;;5030753;28;20060;-73
2023/06/23 10:29:34;;;;;;;4.28;2.60;;;20.80;99.90;;;;;;5024429;28;20045;-73
2023/06/23 10:32:00;;;;;;;3.35;2.90;;;20.70;99.90;;;;;;5026101;28;20446;-73
2023/06/23 10:34:28;;;;;;;4.00;2.30;;;20.70;99.90;;;;;;5024749;28;20029;-72
2023/06/23 10:36:59;;;;;;;5.00;2.92;;;20.70;99.90;;;;;;5025988;28;20107;-73
2023/06/23 10:39:28;;;;;;;5.15;2.97;;;20.70;99.90;;;;;;5023716;28;20042;-73
2023/06/23 10:41:58;;;;;;;4.32;2.30;;;20.70;99.90;;;;;;5019296;28;20094;-72
2023/06/23 10:44:23;;;;;;;4.82;2.72;;;20.80;99.90;;;;;;5042858;28;20087;-72
2023/06/23 10:46:50;;;;;;;4.85;3.00;;;20.80;99.90;;;;;;5037053;28;20086;-72
2023/06/23 10:49:16;;;;;;;4.30;2.83;;;20.80;99.90;;;;;;5038817;28;20045;-72
2023/06/23 10:51:42;;;;;;;5.20;2.67;;;20.80;99.90;;;;;;5059213;28;20076;-73
2023/06/23 10:54:10;;;;;;;6.20;2.90;;;20.90;99.90;;;;;;5031369;28;20361;-73
2023/06/23 10:56:42;;;;;;;5.60;3.00;;;20.90;99.90;;;;;;5025378;28;20088;-72
2023/06/23 10:59:27;;;;;;;5.60;2.70;;;20.90;99.90;;;;;;5024101;28;20046;-71
2023/06/23 11:02:07;;;;;;;3.22;2.47;;;20.90;99.90;;;;;;5033542;28;20048;-71
2023/06/23 11:04:53;;;;;;;2.25;1.88;;;21.00;99.90;;;;;;5034671;28;20063;-73
2023/06/23 11:07:19;;;;;;;4.80;2.30;;;21.00;99.90;;;;;;5029897;28;20492;-71
2023/06/23 11:10:02;;;;;;;2.33;2.00;;;21.00;99.90;;;;;;5022549;28;20515;-72
2023/06/23 11:12:37;;;;;;;8.35;2.45;;;21.00;99.90;;;;;;5024617;28;20348;-73
2023/06/23 11:15:08;;;;;;;3.63;3.28;;;21.10;99.90;;;;;;5034741;28;20072;-72
2023/06/23 11:17:59;;;;;;;2.40;2.00;;;21.10;99.90;;;;;;5022889;28;20053;-71
2023/06/23 11:20:25;;;;;;;1.92;1.77;;;21.10;99.90;;;;;;5030303;28;20577;-72
2023/06/23 11:23:07;;;;;;;3.75;2.88;;;21.10;99.90;;;;;;5037974;28;20037;-73
2023/06/23 11:25:46;;;;;;;4.13;2.13;;;21.10;99.90;;;;;;5043196;28;20056;-75
2023/06/23 11:28:37;;;;;;;2.53;2.00;;;21.10;99.90;;;;;;5041943;28;20060;-71
2023/06/23 11:31:11;;;;;;;7.70;2.00;;;21.10;99.90;;;;;;5023444;28;20056;-72
2023/06/23 11:33:39;;;;;;;4.57;2.20;;;21.10;99.90;;;;;;5027675;28;20090;-71
2023/06/23 11:36:07;;;;;;;3.72;2.03;;;21.20;99.90;;;;;;5028158;28;20045;-71
2023/06/23 11:38:34;;;;;;;2.90;2.03;;;21.20;99.90;;;;;;5022755;28;20041;-71
2023/06/23 11:41:01;;;;;;;3.67;2.25;;;21.20;99.90;;;;;;5023375;28;20045;-72
2023/06/23 11:43:31;;;;;;;3.38;2.10;;;21.20;99.90;;;;;;5026450;28;20041;-71
2023/06/23 11:46:00;;;;;;;5.10;1.95;;;21.20;99.90;;;;;;5029192;28;20039;-71
2023/06/23 11:48:29;;;;;;;3.85;2.17;;;21.20;99.90;;;;;;5034531;28;20044;-71
2023/06/23 11:50:57;;;;;;;2.45;2.17;;;21.20;99.90;;;;;;5045941;28;20044;-72
2023/06/23 11:53:23;;;;;;;2.30;1.85;;;21.20;99.90;;;;;;5028518;28;20048;-71
2023/06/23 11:55:52;;;;;;;2.65;1.85;;;21.30;99.90;;;;;;5026008;28;20523;-72
2023/06/23 11:58:18;;;;;;;2.90;2.00;;;21.30;99.90;;;;;;5026198;28;20033;-72
2023/06/23 12:00:44;;;;;;;3.47;1.98;;;21.40;99.90;;;;;;5025448;28;20038;-72
2023/06/23 12:03:13;;;;;;;4.03;2.08;;;21.40;99.90;;;;;;5045009;28;20455;-72
2023/06/23 12:05:41;;;;;;;1.98;1.88;;;21.40;99.90;;;;;;5044850;28;20530;-72
2023/06/23 12:08:07;;;;;;;2.88;1.63;;;21.40;99.90;;;;;;5045756;28;20118;-72
2023/06/23 12:10:42;;;;;;;3.88;2.13;;;21.40;99.90;;;;;;5046170;28;20076;-73
2023/06/23 12:13:09;;;;;;;2.83;2.15;;;21.40;99.90;;;;;;5045521;28;20395;-72
2023/06/23 12:15:39;;;;;;;8.13;2.20;;;21.40;99.90;;;;;;5044324;28;20048;-72
2023/06/23 12:18:05;;;;;;;2.17;1.60;;;21.40;99.90;;;;;;5044577;28;20206;-72
2023/06/23 12:20:35;;;;;;;4.03;2.20;;;21.40;99.90;;;;;;5026508;28;20037;-72
2023/06/23 12:23:05;;;;;;;2.95;1.98;;;21.50;99.90;;;;;;5025508;28;20056;-73
2023/06/23 12:25:38;;;;;;;2.80;1.88;;;21.50;99.90;;;;;;5027162;28;20052;-72
2023/06/23 12:28:05;;;;;;;3.35;1.80;;;21.50;99.90;;;;;;5025735;28;20037;-72
2023/06/23 12:30:41;;;;;;;2.75;2.53;;;21.40;99.90;;;;;;5026281;28;20049;-72
2023/06/23 12:33:23;;;;;;;2.33;2.13;;;21.30;99.90;;;;;;5007921;28;20037;-72
2023/06/23 12:36:00;;;;;;;;;;;21.30;99.90;;;;;;5025303;28;20779;-72
2023/06/23 12:38:26;;;;;;;4.78;1.80;;;21.30;99.90;;;;;;5025244;28;19920;-72
2023/06/23 12:40:53;;;;;;;2.72;2.10;;;21.40;99.90;;;;;;5030524;28;20048;-72
2023/06/23 12:43:19;;;;;;;3.72;2.28;;;21.40;99.90;;;;;;5045559;28;20041;-72
2023/06/23 12:45:49;;;;;;;4.63;2.17;;;21.40;99.90;;;;;;5044188;28;20094;-72
2023/06/23 12:48:15;;;;;;;4.03;2.60;;;21.40;99.90;;;;;;5044026;28;20049;-72
2023/06/23 12:50:42;;;;;;;4.72;2.38;;;21.40;99.90;;;;;;5035108;28;20044;-73